sensor_id;sensor_type;location;lat;lon;timestamp;P1;durP1;ratioP1;P2;durP2;ratioP2
6015;SDS011;3036;49.960;8.454;2023-06-10T00:02:04;7.18;;;6.07;;
6015;SDS011;3036;49.960;8.454;2023-06-10T00:04:32;7.72;;;4.80;;
6015;SDS011;3036;49.960;8.454;2023-06-10T00:07:01;5.28;;;4.82;;
6015;SDS011;3036;49.960;8.454;2023-06-10T00:09:28;5.18;;;4.78;;
6015;SDS011;3036;49.960;8.454;2023-06-10T00:11:55;5.10;;;4.68;;
6015;SDS011;3036;49.960;8.454;2023-06-10T00:14:26;6.28;;;5.28;;
6015;SDS011;3036;49.960;8.454;2023-06-10T00:16:53;5.05;;;4.65;;
6015;SDS011;3036;49.960;8.454;2023-06-10T00:19:20;5.35;;;4.85;;
6015;SDS011;3036;49.960;8.454;2023-06-10T00:21:50;5.60;;;4.97;;
6015;SDS011;3036;49.960;8.454;2023-06-10T00:24:18;4.75;;;4.45;;
6015;SDS011;3036;49.960;8.454;2023-06-10T00:26:45;5.32;;;4.93;;
6015;SDS011;3036;49.960;8.454;2023-06-10T00:29:12;5.50;;;5.00;;
6015;SDS011;3036;49.960;8.454;2023-06-10T00:31:40;5.47;;;4.75;;
6015;SDS011;3036;49.960;8.454;2023-06-10T00:34:07;4.78;;;4.50;;
6015;SDS011;3036;49.960;8.454;2023-06-10T00:36:35;5.35;;;4.88;;
6015;SDS011;3036;49.960;8.454;2023-06-10T00:39:02;4.93;;;4.53;;
6015;SDS011;3036;49.960;8.454;2023-06-10T00:41:30;5.40;;;4.90;;
6015;SDS011;3036;49.960;8.454;2023-06-10T00:43:58;5.45;;;5.00;;
6015;SDS011;3036;49.960;8.454;2023-06-10T00:46:25;6.65;;;4.55;;
6015;SDS011;3036;49.960;8.454;2023-06-10T00:48:54;4.57;;;4.28;;
6015;SDS011;3036;49.960;8.454;2023-06-10T00:51:21;5.22;;;4.82;;
6015;SDS011;3036;49.960;8.454;2023-06-10T00:53:49;5.60;;;5.10;;
6015;SDS011;3036;49.960;8.454;2023-06-10T00:56:16;4.68;;;4.32;;
6015;SDS011;3036;49.960;8.454;2023-06-10T00:58:43;5.63;;;5.13;;
6015;SDS011;3036;49.960;8.454;2023-06-10T01:01:10;4.80;;;4.40;;
6015;SDS011;3036;49.960;8.454;2023-06-10T01:03:38;5.50;;;5.00;;
6015;SDS011;3036;49.960;8.454;2023-06-10T01:06:09;7.68;;;4.75;;
6015;SDS011;3036;49.960;8.454;2023-06-10T01:08:45;4.80;;;4.47;;
6015;SDS011;3036;49.960;8.454;2023-06-10T01:11:14;4.93;;;4.53;;
6015;SDS011;3036;49.960;8.454;2023-06-10T01:13:44;4.95;;;4.65;;
6015;SDS011;3036;49.960;8.454;2023-06-10T01:16:12;5.18;;;4.85;;
6015;SDS011;3036;49.960;8.454;2023-06-10T01:18:40;5.47;;;5.00;;
6015;SDS011;3036;49.960;8.454;2023-06-10T01:23:43;5.47;;;4.97;;
6015;SDS011;3036;49.960;8.454;2023-06-10T01:26:10;5.45;;;4.82;;
6015;SDS011;3036;49.960;8.454;2023-06-10T01:28:38;5.03;;;4.63;;
6015;SDS011;3036;49.960;8.454;2023-06-10T01:31:09;4.63;;;4.25;;
6015;SDS011;3036;49.960;8.454;2023-06-10T01:33:39;9.27;;;4.47;;
6015;SDS011;3036;49.960;8.454;2023-06-10T01:36:08;5.22;;;4.82;;
6015;SDS011;3036;49.960;8.454;2023-06-10T01:38:36;5.25;;;4.75;;
6015;SDS011;3036;49.960;8.454;2023-06-10T01:41:06;4.85;;;4.45;;
6015;SDS011;3036;49.960;8.454;2023-06-10T01:43:33;5.53;;;5.05;;
6015;SDS011;3036;49.960;8.454;2023-06-10T01:46:00;5.85;;;5.35;;
6015;SDS011;3036;49.960;8.454;2023-06-10T01:48:27;5.40;;;4.90;;
6015;SDS011;3036;49.960;8.454;2023-06-10T01:50:54;5.20;;;4.80;;
6015;SDS011;3036;49.960;8.454;2023-06-10T01:53:21;5.28;;;4.80;;
6015;SDS011;3036;49.960;8.454;2023-06-10T01:55:48;5.28;;;4.78;;
6015;SDS011;3036;49.960;8.454;2023-06-10T01:58:17;4.93;;;4.63;;
6015;SDS011;3036;49.960;8.454;2023-06-10T02:00:44;5.43;;;5.00;;
6015;SDS011;3036;49.960;8.454;2023-06-10T02:03:11;5.35;;;4.75;;
6015;SDS011;3036;49.960;8.454;2023-06-10T02:05:38;5.47;;;5.03;;
6015;SDS011;3036;49.960;8.454;2023-06-10T02:08:05;4.35;;;4.05;;
6015;SDS011;3036;49.960;8.454;2023-06-10T02:10:32;4.80;;;4.40;;
6015;SDS011;3036;49.960;8.454;2023-06-10T02:12:59;5.00;;;4.53;;
6015;SDS011;3036;49.960;8.454;2023-06-10T02:15:28;5.25;;;4.47;;
6015;SDS011;3036;49.960;8.454;2023-06-10T02:17:55;4.68;;;4.32;;
6015;SDS011;3036;49.960;8.454;2023-06-10T02:20:22;4.75;;;4.45;;
6015;SDS011;3036;49.960;8.454;2023-06-10T02:22:49;5.20;;;4.80;;
6015;SDS011;3036;49.960;8.454;2023-06-10T02:25:17;4.63;;;4.22;;
6015;SDS011;3036;49.960;8.454;2023-06-10T02:27:44;6.07;;;4.88;;
6015;SDS011;3036;49.960;8.454;2023-06-10T02:30:11;6.22;;;5.05;;
6015;SDS011;3036;49.960;8.454;2023-06-10T02:32:40;5.00;;;4.65;;
6015;SDS011;3036;49.960;8.454;2023-06-10T02:35:12;5.45;;;4.95;;
6015;SDS011;3036;49.960;8.454;2023-06-10T02:37:39;5.57;;;5.07;;
6015;SDS011;3036;49.960;8.454;2023-06-10T02:40:07;5.40;;;4.90;;
6015;SDS011;3036;49.960;8.454;2023-06-10T02:42:35;6.18;;;4.90;;
6015;SDS011;3036;49.960;8.454;2023-06-10T02:45:02;6.18;;;5.68;;
6015;SDS011;3036;49.960;8.454;2023-06-10T02:47:29;5.25;;;4.85;;
6015;SDS011;3036;49.960;8.454;2023-06-10T02:49:58;6.72;;;4.63;;
6015;SDS011;3036;49.960;8.454;2023-06-10T02:52:25;5.50;;;5.00;;
6015;SDS011;3036;49.960;8.454;2023-06-10T02:54:52;5.68;;;5.20;;
6015;SDS011;3036;49.960;8.454;2023-06-10T02:57:19;5.03;;;4.50;;
6015;SDS011;3036;49.960;8.454;2023-06-10T02:59:46;5.22;;;4.82;;
6015;SDS011;3036;49.960;8.454;2023-06-10T03:02:13;5.30;;;4.90;;
6015;SDS011;3036;49.960;8.454;2023-06-10T03:04:40;8.95;;;4.68;;
6015;SDS011;3036;49.960;8.454;2023-06-10T03:07:09;5.35;;;4.75;;
6015;SDS011;3036;49.960;8.454;2023-06-10T03:09:37;5.95;;;5.35;;
6015;SDS011;3036;49.960;8.454;2023-06-10T03:12:05;6.00;;;4.68;;
6015;SDS011;3036;49.960;8.454;2023-06-10T03:14:32;15.60;;;5.10;;
6015;SDS011;3036;49.960;8.454;2023-06-10T03:16:59;4.97;;;4.68;;
6015;SDS011;3036;49.960;8.454;2023-06-10T03:19:27;5.55;;;4.38;;
6015;SDS011;3036;49.960;8.454;2023-06-10T03:21:57;5.18;;;4.53;;
6015;SDS011;3036;49.960;8.454;2023-06-10T03:24:26;5.78;;;5.00;;
6015;SDS011;3036;49.960;8.454;2023-06-10T03:26:53;5.13;;;4.72;;
6015;SDS011;3036;49.960;8.454;2023-06-10T03:29:20;5.78;;;5.38;;
6015;SDS011;3036;49.960;8.454;2023-06-10T03:31:47;5.43;;;4.95;;
6015;SDS011;3036;49.960;8.454;2023-06-10T03:34:14;5.35;;;4.93;;
6015;SDS011;3036;49.960;8.454;2023-06-10T03:36:41;5.22;;;4.60;;
6015;SDS011;3036;49.960;8.454;2023-06-10T03:39:08;5.13;;;4.72;;
6015;SDS011;3036;49.960;8.454;2023-06-10T03:41:37;5.35;;;4.93;;
6015;SDS011;3036;49.960;8.454;2023-06-10T03:44:04;5.18;;;4.70;;
6015;SDS011;3036;49.960;8.454;2023-06-10T03:46:31;5.38;;;4.90;;
6015;SDS011;3036;49.960;8.454;2023-06-10T03:48:58;5.57;;;5.15;;
6015;SDS011;3036;49.960;8.454;2023-06-10T03:51:25;5.63;;;5.13;;
6015;SDS011;3036;49.960;8.454;2023-06-10T03:53:52;6.45;;;5.30;;
6015;SDS011;3036;49.960;8.454;2023-06-10T03:56:19;6.18;;;4.65;;
6015;SDS011;3036;49.960;8.454;2023-06-10T03:58:47;5.60;;;5.20;;
6015;SDS011;3036;49.960;8.454;2023-06-10T04:01:14;5.75;;;5.03;;
6015;SDS011;3036;49.960;8.454;2023-06-10T04:03:43;5.10;;;4.60;;
6015;SDS011;3036;49.960;8.454;2023-06-10T04:06:10;6.07;;;5.30;;
6015;SDS011;3036;49.960;8.454;2023-06-10T04:08:37;5.53;;;4.97;;
6015;SDS011;3036;49.960;8.454;2023-06-10T04:11:04;5.78;;;5.00;;
6015;SDS011;3036;49.960;8.454;2023-06-10T04:13:31;5.63;;;5.03;;
6015;SDS011;3036;49.960;8.454;2023-06-10T04:15:59;4.93;;;4.53;;
6015;SDS011;3036;49.960;8.454;2023-06-10T04:18:27;4.70;;;4.30;;
6015;SDS011;3036;49.960;8.454;2023-06-10T04:20:54;4.93;;;4.53;;
6015;SDS011;3036;49.960;8.454;2023-06-10T04:23:21;5.70;;;4.75;;
6015;SDS011;3036;49.960;8.454;2023-06-10T04:25:49;5.80;;;4.68;;
6015;SDS011;3036;49.960;8.454;2023-06-10T04:28:16;5.10;;;4.70;;
6015;SDS011;3036;49.960;8.454;2023-06-10T04:30:43;13.20;;;4.53;;
6015;SDS011;3036;49.960;8.454;2023-06-10T04:33:12;12.45;;;4.95;;
6015;SDS011;3036;49.960;8.454;2023-06-10T04:35:39;4.13;;;3.88;;
6015;SDS011;3036;49.960;8.454;2023-06-10T04:38:07;4.70;;;4.40;;
6015;SDS011;3036;49.960;8.454;2023-06-10T04:40:34;4.50;;;4.20;;
6015;SDS011;3036;49.960;8.454;2023-06-10T04:43:01;5.60;;;4.80;;
6015;SDS011;3036;49.960;8.454;2023-06-10T04:45:28;4.65;;;4.25;;
6015;SDS011;3036;49.960;8.454;2023-06-10T04:47:56;4.70;;;4.30;;
6015;SDS011;3036;49.960;8.454;2023-06-10T04:50:24;4.88;;;4.45;;
6015;SDS011;3036;49.960;8.454;2023-06-10T04:52:51;4.60;;;4.20;;
6015;SDS011;3036;49.960;8.454;2023-06-10T04:55:18;4.80;;;4.40;;
6015;SDS011;3036;49.960;8.454;2023-06-10T04:57:46;4.65;;;4.35;;
6015;SDS011;3036;49.960;8.454;2023-06-10T05:00:27;4.93;;;4.55;;
6015;SDS011;3036;49.960;8.454;2023-06-10T05:03:27;5.45;;;4.32;;
6015;SDS011;3036;49.960;8.454;2023-06-10T05:05:54;4.78;;;4.20;;
6015;SDS011;3036;49.960;8.454;2023-06-10T05:08:21;4.35;;;4.05;;
6015;SDS011;3036;49.960;8.454;2023-06-10T05:10:48;4.88;;;4.25;;
6015;SDS011;3036;49.960;8.454;2023-06-10T05:13:16;4.28;;;4.07;;
6015;SDS011;3036;49.960;8.454;2023-06-10T05:15:43;4.20;;;3.80;;
6015;SDS011;3036;49.960;8.454;2023-06-10T05:18:11;3.80;;;3.60;;
6015;SDS011;3036;49.960;8.454;2023-06-10T05:20:40;3.95;;;3.67;;
6015;SDS011;3036;49.960;8.454;2023-06-10T05:23:07;4.03;;;3.72;;
6015;SDS011;3036;49.960;8.454;2023-06-10T05:25:34;3.63;;;3.42;;
6015;SDS011;3036;49.960;8.454;2023-06-10T05:28:01;4.28;;;3.75;;
6015;SDS011;3036;49.960;8.454;2023-06-10T05:30:28;3.83;;;3.63;;
6015;SDS011;3036;49.960;8.454;2023-06-10T05:32:55;3.65;;;3.42;;
6015;SDS011;3036;49.960;8.454;2023-06-10T05:35:22;3.63;;;3.35;;
6015;SDS011;3036;49.960;8.454;2023-06-10T05:37:51;4.07;;;3.78;;
6015;SDS011;3036;49.960;8.454;2023-06-10T05:40:18;3.97;;;3.53;;
6015;SDS011;3036;49.960;8.454;2023-06-10T05:42:45;3.60;;;3.40;;
6015;SDS011;3036;49.960;8.454;2023-06-10T05:45:12;4.18;;;3.88;;
6015;SDS011;3036;49.960;8.454;2023-06-10T05:47:39;3.75;;;3.58;;
6015;SDS011;3036;49.960;8.454;2023-06-10T05:50:06;3.25;;;3.15;;
6015;SDS011;3036;49.960;8.454;2023-06-10T05:52:34;5.75;;;4.00;;
6015;SDS011;3036;49.960;8.454;2023-06-10T05:55:02;6.45;;;4.10;;
6015;SDS011;3036;49.960;8.454;2023-06-10T05:57:30;3.97;;;3.78;;
6015;SDS011;3036;49.960;8.454;2023-06-10T05:59:57;4.70;;;3.58;;
6015;SDS011;3036;49.960;8.454;2023-06-10T06:02:24;3.63;;;3.33;;
6015;SDS011;3036;49.960;8.454;2023-06-10T06:04:51;4.60;;;4.20;;
6015;SDS011;3036;49.960;8.454;2023-06-10T06:07:18;3.55;;;3.35;;
6015;SDS011;3036;49.960;8.454;2023-06-10T06:09:45;3.53;;;3.30;;
6015;SDS011;3036;49.960;8.454;2023-06-10T06:12:14;3.88;;;3.58;;
6015;SDS011;3036;49.960;8.454;2023-06-10T06:14:41;3.75;;;3.45;;
6015;SDS011;3036;49.960;8.454;2023-06-10T06:17:09;3.80;;;3.60;;
6015;SDS011;3036;49.960;8.454;2023-06-10T06:19:36;3.33;;;3.13;;
6015;SDS011;3036;49.960;8.454;2023-06-10T06:22:04;3.72;;;3.33;;
6015;SDS011;3036;49.960;8.454;2023-06-10T06:24:31;3.53;;;3.33;;
6015;SDS011;3036;49.960;8.454;2023-06-10T06:26:58;4.20;;;3.92;;
6015;SDS011;3036;49.960;8.454;2023-06-10T06:29:26;3.80;;;3.50;;
6015;SDS011;3036;49.960;8.454;2023-06-10T06:31:55;3.25;;;2.92;;
6015;SDS011;3036;49.960;8.454;2023-06-10T06:34:22;3.55;;;3.35;;
6015;SDS011;3036;49.960;8.454;2023-06-10T06:36:49;5.65;;;3.47;;
6015;SDS011;3036;49.960;8.454;2023-06-10T06:39:16;3.70;;;3.50;;
6015;SDS011;3036;49.960;8.454;2023-06-10T06:41:43;3.50;;;3.30;;
6015;SDS011;3036;49.960;8.454;2023-06-10T06:44:10;4.18;;;3.90;;
6015;SDS011;3036;49.960;8.454;2023-06-10T06:46:38;3.47;;;3.28;;
6015;SDS011;3036;49.960;8.454;2023-06-10T06:49:05;3.13;;;3.00;;
6015;SDS011;3036;49.960;8.454;2023-06-10T06:51:32;4.22;;;3.78;;
6015;SDS011;3036;49.960;8.454;2023-06-10T06:54:00;6.55;;;3.33;;
6015;SDS011;3036;49.960;8.454;2023-06-10T06:56:27;4.00;;;3.70;;
6015;SDS011;3036;49.960;8.454;2023-06-10T06:58:54;3.58;;;3.38;;
6015;SDS011;3036;49.960;8.454;2023-06-10T07:01:21;7.03;;;3.88;;
6015;SDS011;3036;49.960;8.454;2023-06-10T07:03:49;3.60;;;3.45;;
6015;SDS011;3036;49.960;8.454;2023-06-10T07:06:17;3.35;;;3.20;;
6015;SDS011;3036;49.960;8.454;2023-06-10T07:08:44;3.90;;;3.70;;
6015;SDS011;3036;49.960;8.454;2023-06-10T07:11:11;3.75;;;3.45;;
6015;SDS011;3036;49.960;8.454;2023-06-10T07:13:38;4.88;;;4.03;;
6015;SDS011;3036;49.960;8.454;2023-06-10T07:16:05;4.18;;;3.78;;
6015;SDS011;3036;49.960;8.454;2023-06-10T07:18:32;4.75;;;3.90;;
6015;SDS011;3036;49.960;8.454;2023-06-10T07:21:00;4.47;;;4.13;;
6015;SDS011;3036;49.960;8.454;2023-06-10T07:23:27;3.42;;;3.22;;
6015;SDS011;3036;49.960;8.454;2023-06-10T07:25:54;3.00;;;2.70;;
6015;SDS011;3036;49.960;8.454;2023-06-10T07:28:21;5.13;;;3.72;;
6015;SDS011;3036;49.960;8.454;2023-06-10T07:30:48;3.53;;;3.33;;
6015;SDS011;3036;49.960;8.454;2023-06-10T07:33:15;3.92;;;3.58;;
6015;SDS011;3036;49.960;8.454;2023-06-10T07:35:42;3.40;;;3.20;;
6015;SDS011;3036;49.960;8.454;2023-06-10T07:38:11;3.53;;;3.33;;
6015;SDS011;3036;49.960;8.454;2023-06-10T07:40:38;3.88;;;3.67;;
6015;SDS011;3036;49.960;8.454;2023-06-10T07:43:05;3.95;;;3.65;;
6015;SDS011;3036;49.960;8.454;2023-06-10T07:45:32;3.70;;;3.50;;
6015;SDS011;3036;49.960;8.454;2023-06-10T07:47:59;3.90;;;3.70;;
6015;SDS011;3036;49.960;8.454;2023-06-10T07:50:26;4.10;;;3.80;;
6015;SDS011;3036;49.960;8.454;2023-06-10T07:52:53;3.67;;;3.58;;
6015;SDS011;3036;49.960;8.454;2023-06-10T07:55:21;6.15;;;3.70;;
6015;SDS011;3036;49.960;8.454;2023-06-10T07:57:50;3.75;;;3.55;;
6015;SDS011;3036;49.960;8.454;2023-06-10T08:00:18;3.92;;;3.70;;
6015;SDS011;3036;49.960;8.454;2023-06-10T08:02:45;3.90;;;3.60;;
6015;SDS011;3036;49.960;8.454;2023-06-10T08:05:12;3.92;;;3.72;;
6015;SDS011;3036;49.960;8.454;2023-06-10T08:07:39;4.10;;;3.78;;
6015;SDS011;3036;49.960;8.454;2023-06-10T08:10:07;3.53;;;3.33;;
6015;SDS011;3036;49.960;8.454;2023-06-10T08:12:35;4.47;;;4.07;;
6015;SDS011;3036;49.960;8.454;2023-06-10T08:15:03;4.03;;;3.78;;
6015;SDS011;3036;49.960;8.454;2023-06-10T08:17:30;3.42;;;3.33;;
6015;SDS011;3036;49.960;8.454;2023-06-10T08:19:57;4.00;;;3.80;;
6015;SDS011;3036;49.960;8.454;2023-06-10T08:22:24;4.05;;;3.75;;
6015;SDS011;3036;49.960;8.454;2023-06-10T08:24:51;4.22;;;3.92;;
6015;SDS011;3036;49.960;8.454;2023-06-10T08:27:19;4.60;;;4.25;;
6015;SDS011;3036;49.960;8.454;2023-06-10T08:29:47;4.40;;;4.10;;
6015;SDS011;3036;49.960;8.454;2023-06-10T08:32:14;3.47;;;3.35;;
6015;SDS011;3036;49.960;8.454;2023-06-10T08:34:41;4.43;;;4.03;;
6015;SDS011;3036;49.960;8.454;2023-06-10T08:37:08;6.03;;;4.53;;
6015;SDS011;3036;49.960;8.454;2023-06-10T08:39:36;4.15;;;3.85;;
6015;SDS011;3036;49.960;8.454;2023-06-10T08:42:04;4.18;;;3.88;;
6015;SDS011;3036;49.960;8.454;2023-06-10T08:44:36;3.95;;;3.75;;
6015;SDS011;3036;49.960;8.454;2023-06-10T08:47:06;5.03;;;4.63;;
6015;SDS011;3036;49.960;8.454;2023-06-10T08:49:34;4.10;;;3.90;;
6015;SDS011;3036;49.960;8.454;2023-06-10T08:52:04;3.53;;;3.33;;
6015;SDS011;3036;49.960;8.454;2023-06-10T08:54:33;4.60;;;4.30;;
6015;SDS011;3036;49.960;8.454;2023-06-10T08:57:03;4.65;;;4.30;;
6015;SDS011;3036;49.960;8.454;2023-06-10T08:59:30;4.93;;;4.50;;
6015;SDS011;3036;49.960;8.454;2023-06-10T09:01:58;4.15;;;3.85;;
6015;SDS011;3036;49.960;8.454;2023-06-10T09:04:27;4.25;;;3.85;;
6015;SDS011;3036;49.960;8.454;2023-06-10T09:06:54;5.78;;;4.20;;
6015;SDS011;3036;49.960;8.454;2023-06-10T09:09:22;4.40;;;4.10;;
6015;SDS011;3036;49.960;8.454;2023-06-10T09:11:50;4.07;;;3.90;;
6015;SDS011;3036;49.960;8.454;2023-06-10T09:14:17;4.15;;;3.85;;
6015;SDS011;3036;49.960;8.454;2023-06-10T09:16:44;3.83;;;3.63;;
6015;SDS011;3036;49.960;8.454;2023-06-10T09:19:13;3.45;;;3.10;;
6015;SDS011;3036;49.960;8.454;2023-06-10T09:21:42;4.63;;;4.32;;
6015;SDS011;3036;49.960;8.454;2023-06-10T09:24:09;4.80;;;4.40;;
6015;SDS011;3036;49.960;8.454;2023-06-10T09:26:36;4.75;;;4.40;;
6015;SDS011;3036;49.960;8.454;2023-06-10T09:29:03;4.07;;;3.88;;
6015;SDS011;3036;49.960;8.454;2023-06-10T09:31:31;4.28;;;3.97;;
6015;SDS011;3036;49.960;8.454;2023-06-10T09:34:05;4.32;;;4.03;;
6015;SDS011;3036;49.960;8.454;2023-06-10T09:36:32;3.90;;;3.70;;
6015;SDS011;3036;49.960;8.454;2023-06-10T09:39:01;4.93;;;4.50;;
6015;SDS011;3036;49.960;8.454;2023-06-10T09:41:34;3.80;;;3.60;;
6015;SDS011;3036;49.960;8.454;2023-06-10T09:44:01;4.45;;;4.22;;
6015;SDS011;3036;49.960;8.454;2023-06-10T09:46:30;4.03;;;3.72;;
6015;SDS011;3036;49.960;8.454;2023-06-10T09:48:58;4.68;;;4.22;;
6015;SDS011;3036;49.960;8.454;2023-06-10T09:51:25;3.70;;;3.60;;
6015;SDS011;3036;49.960;8.454;2023-06-10T09:53:52;4.47;;;4.18;;
6015;SDS011;3036;49.960;8.454;2023-06-10T09:56:21;3.70;;;3.60;;
6015;SDS011;3036;49.960;8.454;2023-06-10T09:58:59;3.63;;;3.53;;
6015;SDS011;3036;49.960;8.454;2023-06-10T10:01:26;4.28;;;3.97;;
6015;SDS011;3036;49.960;8.454;2023-06-10T10:03:53;4.50;;;4.20;;
6015;SDS011;3036;49.960;8.454;2023-06-10T10:06:20;4.50;;;4.20;;
6015;SDS011;3036;49.960;8.454;2023-06-10T10:08:47;3.75;;;3.55;;
6015;SDS011;3036;49.960;8.454;2023-06-10T10:11:16;3.95;;;3.75;;
6015;SDS011;3036;49.960;8.454;2023-06-10T10:13:46;3.70;;;3.50;;
6015;SDS011;3036;49.960;8.454;2023-06-10T10:16:14;3.53;;;3.40;;
6015;SDS011;3036;49.960;8.454;2023-06-10T10:18:43;4.00;;;3.67;;
6015;SDS011;3036;49.960;8.454;2023-06-10T10:21:11;3.50;;;3.40;;
6015;SDS011;3036;49.960;8.454;2023-06-10T10:23:39;3.08;;;2.97;;
6015;SDS011;3036;49.960;8.454;2023-06-10T10:26:07;2.92;;;2.83;;
6015;SDS011;3036;49.960;8.454;2023-06-10T10:28:37;4.03;;;3.67;;
6015;SDS011;3036;49.960;8.454;2023-06-10T10:31:09;3.30;;;3.20;;
6015;SDS011;3036;49.960;8.454;2023-06-10T10:33:40;4.32;;;3.95;;
6015;SDS011;3036;49.960;8.454;2023-06-10T10:36:08;3.78;;;3.42;;
6015;SDS011;3036;49.960;8.454;2023-06-10T10:38:35;3.70;;;3.55;;
6015;SDS011;3036;49.960;8.454;2023-06-10T10:41:02;3.72;;;3.58;;
6015;SDS011;3036;49.960;8.454;2023-06-10T10:43:30;4.13;;;3.83;;
6015;SDS011;3036;49.960;8.454;2023-06-10T10:45:58;3.63;;;3.50;;
6015;SDS011;3036;49.960;8.454;2023-06-10T10:48:27;4.32;;;4.03;;
6015;SDS011;3036;49.960;8.454;2023-06-10T10:51:00;4.70;;;4.40;;
6015;SDS011;3036;49.960;8.454;2023-06-10T10:53:27;4.28;;;3.97;;
6015;SDS011;3036;49.960;8.454;2023-06-10T10:56:00;4.20;;;3.78;;
6015;SDS011;3036;49.960;8.454;2023-06-10T10:58:31;3.30;;;3.13;;
6015;SDS011;3036;49.960;8.454;2023-06-10T11:00:58;3.47;;;3.38;;
6015;SDS011;3036;49.960;8.454;2023-06-10T11:03:29;3.55;;;3.35;;
6015;SDS011;3036;49.960;8.454;2023-06-10T11:05:56;2.38;;;1.85;;
6015;SDS011;3036;49.960;8.454;2023-06-10T11:11:17;3.55;;;3.35;;
6015;SDS011;3036;49.960;8.454;2023-06-10T11:13:57;4.50;;;4.20;;
6015;SDS011;3036;49.960;8.454;2023-06-10T11:16:25;3.30;;;3.20;;
6015;SDS011;3036;49.960;8.454;2023-06-10T11:18:54;3.75;;;3.55;;
6015;SDS011;3036;49.960;8.454;2023-06-10T11:21:22;3.95;;;3.60;;
6015;SDS011;3036;49.960;8.454;2023-06-10T11:23:50;4.40;;;4.00;;
6015;SDS011;3036;49.960;8.454;2023-06-10T11:26:21;3.58;;;3.35;;
6015;SDS011;3036;49.960;8.454;2023-06-10T11:29:01;3.17;;;3.08;;
6015;SDS011;3036;49.960;8.454;2023-06-10T11:31:29;3.53;;;3.28;;
6015;SDS011;3036;49.960;8.454;2023-06-10T11:33:58;3.58;;;3.17;;
6015;SDS011;3036;49.960;8.454;2023-06-10T11:36:26;2.97;;;2.88;;
6015;SDS011;3036;49.960;8.454;2023-06-10T11:38:55;3.47;;;3.22;;
6015;SDS011;3036;49.960;8.454;2023-06-10T11:41:23;3.25;;;3.10;;
6015;SDS011;3036;49.960;8.454;2023-06-10T11:43:51;3.90;;;3.70;;
6015;SDS011;3036;49.960;8.454;2023-06-10T11:46:18;3.50;;;3.30;;
6015;SDS011;3036;49.960;8.454;2023-06-10T11:48:48;3.25;;;3.05;;
6015;SDS011;3036;49.960;8.454;2023-06-10T11:51:17;3.58;;;3.38;;
6015;SDS011;3036;49.960;8.454;2023-06-10T11:53:44;2.33;;;2.22;;
6015;SDS011;3036;49.960;8.454;2023-06-10T11:56:11;2.80;;;2.70;;
6015;SDS011;3036;49.960;8.454;2023-06-10T11:58:39;2.70;;;2.60;;
6015;SDS011;3036;49.960;8.454;2023-06-10T12:01:10;3.13;;;2.92;;
6015;SDS011;3036;49.960;8.454;2023-06-10T12:03:37;3.05;;;2.92;;
6015;SDS011;3036;49.960;8.454;2023-06-10T12:06:05;3.55;;;3.10;;
6015;SDS011;3036;49.960;8.454;2023-06-10T12:08:34;2.45;;;2.42;;
6015;SDS011;3036;49.960;8.454;2023-06-10T12:11:07;2.85;;;2.75;;
6015;SDS011;3036;49.960;8.454;2023-06-10T12:13:35;3.03;;;2.92;;
6015;SDS011;3036;49.960;8.454;2023-06-10T12:16:08;2.85;;;2.60;;
6015;SDS011;3036;49.960;8.454;2023-06-10T12:18:35;3.75;;;2.55;;
6015;SDS011;3036;49.960;8.454;2023-06-10T12:21:02;3.75;;;2.78;;
6015;SDS011;3036;49.960;8.454;2023-06-10T12:23:29;2.80;;;2.70;;
6015;SDS011;3036;49.960;8.454;2023-06-10T12:25:58;2.88;;;2.67;;
6015;SDS011;3036;49.960;8.454;2023-06-10T12:28:27;2.75;;;2.65;;
6015;SDS011;3036;49.960;8.454;2023-06-10T12:31:05;3.13;;;3.03;;
6015;SDS011;3036;49.960;8.454;2023-06-10T12:33:33;38.45;;;10.73;;
6015;SDS011;3036;49.960;8.454;2023-06-10T12:36:00;6.05;;;2.75;;
6015;SDS011;3036;49.960;8.454;2023-06-10T12:38:27;3.92;;;2.92;;
6015;SDS011;3036;49.960;8.454;2023-06-10T12:40:54;2.53;;;2.42;;
6015;SDS011;3036;49.960;8.454;2023-06-10T12:43:30;2.50;;;2.50;;
6015;SDS011;3036;49.960;8.454;2023-06-10T12:46:07;2.60;;;2.50;;
6015;SDS011;3036;49.960;8.454;2023-06-10T12:48:35;2.67;;;2.47;;
6015;SDS011;3036;49.960;8.454;2023-06-10T12:51:02;3.00;;;2.60;;
6015;SDS011;3036;49.960;8.454;2023-06-10T12:53:30;2.15;;;2.15;;
6015;SDS011;3036;49.960;8.454;2023-06-10T12:55:58;2.72;;;2.53;;
6015;SDS011;3036;49.960;8.454;2023-06-10T12:58:27;2.55;;;2.35;;
6015;SDS011;3036;49.960;8.454;2023-06-10T13:00:55;3.28;;;2.85;;
6015;SDS011;3036;49.960;8.454;2023-06-10T13:03:24;2.40;;;2.35;;
6015;SDS011;3036;49.960;8.454;2023-06-10T13:05:51;2.85;;;2.72;;
6015;SDS011;3036;49.960;8.454;2023-06-10T13:08:18;2.67;;;2.30;;
6015;SDS011;3036;49.960;8.454;2023-06-10T13:10:45;3.30;;;3.00;;
6015;SDS011;3036;49.960;8.454;2023-06-10T13:13:14;2.65;;;2.55;;
6015;SDS011;3036;49.960;8.454;2023-06-10T13:15:41;2.47;;;2.38;;
6015;SDS011;3036;49.960;8.454;2023-06-10T13:18:09;2.67;;;2.60;;
6015;SDS011;3036;49.960;8.454;2023-06-10T13:20:36;2.88;;;2.78;;
6015;SDS011;3036;49.960;8.454;2023-06-10T13:23:03;2.70;;;2.60;;
6015;SDS011;3036;49.960;8.454;2023-06-10T13:25:30;3.20;;;3.00;;
6015;SDS011;3036;49.960;8.454;2023-06-10T13:27:57;3.00;;;2.90;;
6015;SDS011;3036;49.960;8.454;2023-06-10T13:30:24;3.05;;;2.95;;
6015;SDS011;3036;49.960;8.454;2023-06-10T13:32:51;2.85;;;2.65;;
6015;SDS011;3036;49.960;8.454;2023-06-10T13:38:27;3.25;;;3.00;;
6015;SDS011;3036;49.960;8.454;2023-06-10T13:40:54;3.17;;;2.97;;
6015;SDS011;3036;49.960;8.454;2023-06-10T13:43:21;3.00;;;2.80;;
6015;SDS011;3036;49.960;8.454;2023-06-10T13:45:48;3.03;;;2.88;;
6015;SDS011;3036;49.960;8.454;2023-06-10T13:48:15;2.78;;;2.67;;
6015;SDS011;3036;49.960;8.454;2023-06-10T13:50:43;2.65;;;2.55;;
6015;SDS011;3036;49.960;8.454;2023-06-10T13:53:10;3.10;;;3.00;;
6015;SDS011;3036;49.960;8.454;2023-06-10T13:55:39;2.67;;;2.58;;
6015;SDS011;3036;49.960;8.454;2023-06-10T13:58:06;3.05;;;2.95;;
6015;SDS011;3036;49.960;8.454;2023-06-10T14:00:33;3.13;;;2.97;;
6015;SDS011;3036;49.960;8.454;2023-06-10T14:03:00;3.03;;;2.92;;
6015;SDS011;3036;49.960;8.454;2023-06-10T14:05:28;2.70;;;2.60;;
6015;SDS011;3036;49.960;8.454;2023-06-10T14:07:55;2.90;;;2.80;;
6015;SDS011;3036;49.960;8.454;2023-06-10T14:10:22;2.65;;;2.55;;
6015;SDS011;3036;49.960;8.454;2023-06-10T14:12:50;3.25;;;3.15;;
6015;SDS011;3036;49.960;8.454;2023-06-10T14:15:17;3.20;;;3.00;;
6015;SDS011;3036;49.960;8.454;2023-06-10T14:17:44;2.85;;;2.75;;
6015;SDS011;3036;49.960;8.454;2023-06-10T14:20:11;3.30;;;3.00;;
6015;SDS011;3036;49.960;8.454;2023-06-10T14:22:39;2.67;;;2.60;;
6015;SDS011;3036;49.960;8.454;2023-06-10T14:25:06;3.60;;;3.30;;
6015;SDS011;3036;49.960;8.454;2023-06-10T14:27:33;3.40;;;3.30;;
6015;SDS011;3036;49.960;8.454;2023-06-10T14:30:02;3.00;;;2.90;;
6015;SDS011;3036;49.960;8.454;2023-06-10T14:32:30;3.17;;;2.97;;
6015;SDS011;3036;49.960;8.454;2023-06-10T14:34:57;3.03;;;2.83;;
6015;SDS011;3036;49.960;8.454;2023-06-10T14:37:25;4.57;;;3.25;;
6015;SDS011;3036;49.960;8.454;2023-06-10T14:39:52;3.10;;;2.83;;
6015;SDS011;3036;49.960;8.454;2023-06-10T14:42:19;3.40;;;3.20;;
6015;SDS011;3036;49.960;8.454;2023-06-10T14:44:46;2.95;;;2.85;;
6015;SDS011;3036;49.960;8.454;2023-06-10T14:47:15;3.15;;;2.67;;
6015;SDS011;3036;49.960;8.454;2023-06-10T14:49:42;3.00;;;2.90;;
6015;SDS011;3036;49.960;8.454;2023-06-10T14:52:09;3.13;;;3.03;;
6015;SDS011;3036;49.960;8.454;2023-06-10T14:54:36;2.85;;;2.75;;
6015;SDS011;3036;49.960;8.454;2023-06-10T14:57:04;2.60;;;2.50;;
6015;SDS011;3036;49.960;8.454;2023-06-10T14:59:32;2.60;;;2.50;;
6015;SDS011;3036;49.960;8.454;2023-06-10T15:01:59;2.83;;;2.72;;
6015;SDS011;3036;49.960;8.454;2023-06-10T15:04:28;2.47;;;2.38;;
6015;SDS011;3036;49.960;8.454;2023-06-10T15:06:55;2.75;;;2.65;;
6015;SDS011;3036;49.960;8.454;2023-06-10T15:09:22;8.32;;;2.70;;
6015;SDS011;3036;49.960;8.454;2023-06-10T15:11:49;2.97;;;2.85;;
6015;SDS011;3036;49.960;8.454;2023-06-10T15:14:16;3.58;;;3.38;;
6015;SDS011;3036;49.960;8.454;2023-06-10T15:16:43;3.00;;;2.90;;
6015;SDS011;3036;49.960;8.454;2023-06-10T15:19:10;3.90;;;2.67;;
6015;SDS011;3036;49.960;8.454;2023-06-10T15:21:38;3.42;;;3.22;;
6015;SDS011;3036;49.960;8.454;2023-06-10T15:24:06;4.10;;;2.78;;
6015;SDS011;3036;49.960;8.454;2023-06-10T15:26:33;2.90;;;2.80;;
6015;SDS011;3036;49.960;8.454;2023-06-10T15:29:00;3.17;;;3.03;;